Terminal Aerodrome Forecast
Issued by NWS Shreveport, LA

Home | Current Version | Previous Version | Text Only | Print | Product List | Glossary On
Versions: 1 2 3 4 5 6 7 8 9 10 11 12 13 14 15 16 17 18
000
FTUS44 KSHV 300526
TAFMLU
TAF
KMLU 300526Z 3006/3106 21008KT P6SM SKC
     FM300900 24005KT 6SM BR OVC015
      TEMPO 3009/3012 5SM -SHRA BR OVC015
     FM301200 25005KT 6SM -SHRA BR OVC015
     FM302100 32005KT P6SM OVC035=

USA.gov is the U.S. government's official web portal to all federal, state and local government web resources and services.